Terminal Aerodrome Forecast
Issued by NWS

Home | Current Version | Previous Version | Text Only | Print | Product List | Glossary On
Versions: 1 2 3 4 5 6 7 8 9 10 11 12 13 14 15 16 17 18 19 20 21 22 23 24 25 26 27 28 29 30
000
FTUS44 KFWD 261505 AAC
TAFAFW
TAF AMD
KAFW 261505Z 2615/2712 12007KT P6SM VCSH BKN024 BKN050
      TEMPO 2615/2617 BKN018
     FM261700 10008KT P6SM VCSH BKN030 BKN080
     FM261900 12007KT P6SM VCTS SCT030 BKN045CB
     FM270000 13007KT P6SM BKN050 BKN200=

USA.gov is the U.S. government's official web portal to all federal, state and local government web resources and services.